Time;durP1;ratioP1;P1;durP2;ratioP2;P2;SDS_P1;SDS_P2;PMS_P1;PMS_P2;Temp;Humidity;BMP_temperature;BMP_pressure;BME280_temperature;BME280_humidity;BME280_pressure;Samples;Min_cycle;Max_cycle;Signal;HPM_P1;HPM_P2
2021/06/10 00:01:37;;;;;;;10.60;7.45;;;588.80;1536.00;;;;;;5073972;28;20544;-64
2021/06/10 00:04:03;;;;;;;12.13;7.85;;;588.80;1536.00;;;;;;5074067;28;20020;-64
2021/06/10 00:06:29;;;;;;;13.57;7.60;;;588.80;1536.00;;;;;;5073723;28;20392;-71
2021/06/10 00:08:54;;;;;;;14.77;8.15;;;588.80;1536.00;;;;;;5073653;28;20020;-73
2021/06/10 00:11:20;;;;;;;14.43;7.65;;;588.80;1536.00;;;;;;5073582;28;20507;-63
2021/06/10 00:13:46;;;;;;;14.60;7.65;;;564.10;1536.00;;;;;;5073418;28;20024;-63
2021/06/10 00:16:12;;;;;;;12.40;7.82;;;564.10;1536.00;;;;;;5073263;28;20040;-73
2021/06/10 00:18:40;;;;;;;16.40;8.02;;;564.10;1536.00;;;;;;5073398;28;20070;-74
2021/06/10 00:21:06;;;;;;;9.18;7.47;;;564.00;1536.00;;;;;;5073354;28;20030;-63
2021/06/10 00:23:31;;;;;;;10.43;8.00;;;564.10;1536.00;;;;;;5073479;28;20095;-64
2021/06/10 00:25:57;;;;;;;12.63;7.90;;;564.00;1536.00;;;;;;5073350;28;20024;-73
2021/06/10 00:28:23;;;;;;;9.65;7.78;;;564.00;1536.00;;;;;;5071173;28;20043;-73
2021/06/10 00:30:49;;;;;;;12.80;7.82;;;564.00;1536.00;;;;;;5073435;28;20358;-64
2021/06/10 00:33:15;;;;;;;9.45;7.80;;;563.90;1536.00;;;;;;5073333;28;20477;-72
2021/06/10 00:35:40;;;;;;;9.52;7.93;;;563.90;1561.60;;;;;;5073300;28;20040;-65
2021/06/10 00:38:06;;;;;;;8.13;7.10;;;563.90;1536.00;;;;;;5073618;28;20028;-64
2021/06/10 00:40:35;;;;;;;9.52;7.80;;;563.90;1536.00;;;;;;5073412;28;20021;-73
2021/06/10 00:43:01;;;;;;;16.85;8.25;;;563.90;1536.00;;;;;;5073614;28;20024;-64
2021/06/10 00:45:29;;;;;;;8.43;7.63;;;563.90;1561.60;;;;;;5073242;28;20021;-64
2021/06/10 00:47:56;;;;;;;14.85;7.82;;;563.80;1561.60;;;;;;5073317;28;20052;-64
2021/06/10 00:50:36;;;;;;;9.52;8.05;;;563.70;1561.60;;;;;;5073386;28;20025;-64
2021/06/10 00:53:01;;;;;;;11.88;8.65;;;563.70;1561.60;;;;;;5073329;28;20025;-72
2021/06/10 00:55:28;;;;;;;9.18;8.25;;;563.70;1561.60;;;;;;5073120;28;20036;-73
2021/06/10 00:57:54;;;;;;;11.50;8.50;;;563.70;1561.60;;;;;;5072968;28;20072;-64
2021/06/10 01:00:21;;;;;;;17.65;8.15;;;563.70;1561.60;;;;;;5073340;28;20469;-65
2021/06/10 01:02:47;;;;;;;9.30;8.02;;;563.70;1561.60;;;;;;5073143;28;20105;-64
2021/06/10 01:05:14;;;;;;;10.65;7.60;;;563.60;1561.60;;;;;;5073112;28;20044;-64
2021/06/10 01:07:49;;;;;;;8.35;7.32;;;563.60;1561.60;;;;;;5073058;28;20082;-64
2021/06/10 01:10:44;;;;;;;9.55;7.30;;;563.60;1587.20;;;;;;5073646;28;20442;-64
2021/06/10 01:13:24;;;;;;;12.18;7.57;;;563.60;1587.20;;;;;;5071821;28;20029;-64
2021/06/10 01:15:56;;;;;;;10.88;8.05;;;563.60;1561.60;;;;;;5073060;28;20056;-71
2021/06/10 01:18:25;;;;;;;14.63;8.30;;;563.50;1587.20;;;;;;5073025;28;20013;-64
2021/06/10 01:20:54;;;;;;;9.40;7.95;;;563.50;1587.20;;;;;;5072979;28;20036;-64
2021/06/10 01:23:46;;;;;;;14.18;8.55;;;563.40;1612.80;;;;;;5072930;28;20416;-64
2021/06/10 01:26:34;;;;;;;14.32;8.48;;;563.40;1612.80;;;;;;5073037;28;20469;-63
2021/06/10 01:29:03;;;;;;;12.30;8.25;;;563.40;1612.80;;;;;;5073154;28;20021;-63
2021/06/10 01:31:30;;;;;;;15.57;8.73;;;563.30;1612.80;;;;;;5073075;28;20121;-73
2021/06/10 01:34:00;;;;;;;9.98;8.48;;;563.30;1612.80;;;;;;5072816;28;20478;-64
2021/06/10 01:36:30;;;;;;;13.35;9.63;;;563.30;1612.80;;;;;;5072764;28;20036;-72
2021/06/10 01:39:03;;;;;;;10.65;9.07;;;563.30;1612.80;;;;;;5073957;28;20069;-64
2021/06/10 01:41:30;;;;;;;11.68;9.45;;;563.30;1612.80;;;;;;5076716;28;20378;-64
2021/06/10 01:43:58;;;;;;;11.80;9.05;;;563.20;1612.80;;;;;;5076400;28;20029;-64
2021/06/10 01:46:26;;;;;;;12.50;9.68;;;563.20;1612.80;;;;;;5076598;28;20025;-64
2021/06/10 01:48:53;;;;;;;16.38;9.80;;;563.20;1612.80;;;;;;5076593;28;20038;-64
2021/06/10 01:51:22;;;;;;;15.82;9.57;;;563.20;1612.80;;;;;;5076258;28;20056;-64
2021/06/10 01:53:50;;;;;;;13.05;8.90;;;563.20;1638.40;;;;;;5076243;28;20373;-72
2021/06/10 01:56:17;;;;;;;11.85;8.88;;;563.20;1612.80;;;;;;5076140;28;20040;-64
2021/06/10 01:58:44;;;;;;;13.20;9.68;;;538.50;1587.20;;;;;;5075911;28;20041;-64
2021/06/10 02:01:11;;;;;;;11.48;9.40;;;538.50;1587.20;;;;;;5076091;28;20029;-64
2021/06/10 02:03:38;;;;;;;15.25;9.30;;;538.50;1587.20;;;;;;5076056;28;20066;-72
2021/06/10 02:06:08;;;;;;;10.80;9.52;;;538.50;1587.20;;;;;;5076030;28;20103;-64
2021/06/10 02:08:35;;;;;;;14.40;9.48;;;538.50;1587.20;;;;;;5076051;28;20017;-64
2021/06/10 02:11:01;;;;;;;13.50;9.80;;;538.40;1587.20;;;;;;5075929;28;20027;-64
2021/06/10 02:13:28;;;;;;;9.80;8.65;;;538.40;1587.20;;;;;;5075800;28;20089;-64
2021/06/10 02:15:57;;;;;;;12.52;9.30;;;538.40;1587.20;;;;;;5075686;28;20029;-64
2021/06/10 02:18:23;;;;;;;11.77;8.73;;;538.30;1612.80;;;;;;5076081;28;20023;-72
2021/06/10 02:20:49;;;;;;;14.70;9.88;;;538.40;1587.20;;;;;;5075962;28;20503;-64
2021/06/10 02:23:15;;;;;;;11.20;9.20;;;538.30;1612.80;;;;;;5076023;28;20071;-73
2021/06/10 02:25:41;;;;;;;14.07;9.82;;;538.30;1612.80;;;;;;5075634;28;20096;-64
2021/06/10 02:28:07;;;;;;;13.20;9.88;;;538.20;1612.80;;;;;;5075542;28;20174;-64
2021/06/10 02:30:34;;;;;;;12.93;10.18;;;538.10;1612.80;;;;;;5075532;28;20028;-72
2021/06/10 02:33:00;;;;;;;16.45;10.20;;;538.10;1612.80;;;;;;5075494;28;20477;-63
2021/06/10 02:35:26;;;;;;;12.88;9.27;;;538.10;1638.40;;;;;;5075421;28;20039;-64
2021/06/10 02:38:00;;;;;;;13.80;9.43;;;538.10;1612.80;;;;;;5075549;28;20046;-63
2021/06/10 02:40:35;;;;;;;13.35;9.75;;;538.00;1638.40;;;;;;5075411;28;20432;-72
2021/06/10 02:43:04;;;;;;;14.93;10.18;;;538.00;1638.40;;;;;;5075279;28;20048;-64
2021/06/10 02:45:31;;;;;;;11.50;9.32;;;538.00;1638.40;;;;;;5075193;28;20029;-64
2021/06/10 02:47:59;;;;;;;14.98;9.02;;;538.00;1638.40;;;;;;5075183;28;20024;-72
2021/06/10 02:50:28;;;;;;;11.20;8.43;;;538.00;1612.80;;;;;;5074250;28;20111;-72
2021/06/10 02:52:56;;;;;;;12.25;8.80;;;538.00;1612.80;;;;;;5075114;28;20021;-64
2021/06/10 02:55:22;;;;;;;13.10;9.40;;;538.00;1612.80;;;;;;5075207;28;20444;-64
2021/06/10 02:57:56;;;;;;;10.48;8.75;;;538.00;1612.80;;;;;;5074809;28;20070;-72
2021/06/10 03:00:26;;;;;;;12.50;8.23;;;538.00;1612.80;;;;;;5075259;28;20021;-64
2021/06/10 03:02:52;;;;;;;12.80;8.23;;;538.00;1612.80;;;;;;5074875;28;20142;-72
2021/06/10 03:05:21;;;;;;;11.07;8.32;;;538.10;1612.80;;;;;;5074818;28;20481;-64
2021/06/10 03:07:47;;;;;;;11.25;8.20;;;538.00;1612.80;;;;;;5074763;28;20485;-64
2021/06/10 03:10:13;;;;;;;16.15;9.38;;;538.00;1612.80;;;;;;5074763;28;20385;-72
2021/06/10 03:12:41;;;;;;;13.68;8.45;;;538.00;1612.80;;;;;;5074838;28;20025;-67
2021/06/10 03:15:10;;;;;;;12.98;8.38;;;538.00;1612.80;;;;;;5073288;28;20385;-64
2021/06/10 03:17:37;;;;;;;16.60;8.25;;;537.90;1638.40;;;;;;5074565;28;20082;-72
2021/06/10 03:20:05;;;;;;;15.35;8.32;;;537.80;1638.40;;;;;;5074533;28;20024;-64
2021/06/10 03:22:32;;;;;;;16.48;8.52;;;537.90;1638.40;;;;;;5073226;28;20024;-64
2021/06/10 03:25:00;;;;;;;10.30;7.72;;;537.80;1638.40;;;;;;5074683;28;20028;-72
2021/06/10 03:27:27;;;;;;;11.88;8.27;;;537.80;1638.40;;;;;;5074617;28;20385;-64
2021/06/10 03:29:53;;;;;;;12.40;8.15;;;537.90;1638.40;;;;;;5074356;28;20391;-64
2021/06/10 03:32:20;;;;;;;16.08;9.13;;;537.80;1664.00;;;;;;5073070;28;20031;-73
2021/06/10 03:34:47;;;;;;;10.82;8.20;;;537.80;1664.00;;;;;;5074423;28;20473;-64
2021/06/10 03:37:15;;;;;;;9.68;8.27;;;537.80;1664.00;;;;;;5074210;28;20142;-74
2021/06/10 03:39:41;;;;;;;10.18;8.52;;;537.80;1664.00;;;;;;5074082;28;20044;-64
2021/06/10 03:42:08;;;;;;;9.77;7.50;;;537.70;1664.00;;;;;;5074068;28;20078;-73
2021/06/10 03:44:34;;;;;;;12.63;7.65;;;537.70;1689.60;;;;;;5074561;28;20491;-64
2021/06/10 03:47:01;;;;;;;9.93;7.20;;;537.70;1689.60;;;;;;5074032;28;20104;-64
2021/06/10 03:49:27;;;;;;;11.27;7.70;;;537.80;1689.60;;;;;;5074026;28;20012;-64
2021/06/10 03:51:54;;;;;;;11.23;7.53;;;537.60;1689.60;;;;;;5074284;28;20024;-73
2021/06/10 03:54:22;;;;;;;12.80;8.23;;;537.70;1689.60;;;;;;5073864;28;20465;-64
2021/06/10 03:56:48;;;;;;;13.50;7.70;;;537.70;1689.60;;;;;;5073866;28;20064;-64
2021/06/10 03:59:15;;;;;;;9.00;7.47;;;537.70;1689.60;;;;;;5073647;28;20055;-64
2021/06/10 04:01:41;;;;;;;11.48;7.88;;;537.70;1689.60;;;;;;5073430;28;20060;-64
2021/06/10 04:04:07;;;;;;;13.18;7.65;;;537.80;1689.60;;;;;;5073806;28;20448;-64
2021/06/10 04:06:35;;;;;;;9.35;7.18;;;537.70;1689.60;;;;;;5072447;28;20060;-64
2021/06/10 04:09:03;;;;;;;9.50;7.30;;;537.70;1715.20;;;;;;5074015;28;20035;-64
2021/06/10 04:11:29;;;;;;;16.05;7.65;;;537.80;1715.20;;;;;;5073639;28;20032;-69
2021/06/10 04:13:55;;;;;;;10.23;7.65;;;537.80;1715.20;;;;;;5073622;28;20082;-64
2021/06/10 04:16:22;;;;;;;9.95;6.60;;;537.80;1715.20;;;;;;5074108;28;20477;-64
2021/06/10 04:18:48;;;;;;;13.05;7.00;;;537.80;1715.20;;;;;;5073623;28;20103;-72
2021/06/10 04:21:14;;;;;;;9.68;7.07;;;537.90;1715.20;;;;;;5073518;28;20029;-64
2021/06/10 04:23:40;;;;;;;7.60;6.10;;;537.90;1715.20;;;;;;5073797;28;20095;-64
2021/06/10 04:26:06;;;;;;;13.43;5.95;;;538.00;1715.20;;;;;;5074047;28;20031;-64
2021/06/10 04:28:32;;;;;;;7.43;6.35;;;538.00;1715.20;;;;;;5073537;28;20062;-64
2021/06/10 04:30:59;;;;;;;10.38;7.07;;;538.10;1715.20;;;;;;5073391;28;20479;-64
2021/06/10 04:33:26;;;;;;;8.77;6.88;;;538.10;1715.20;;;;;;5073478;28;20358;-72
2021/06/10 04:35:52;;;;;;;9.98;6.45;;;538.10;1715.20;;;;;;5073303;28;20036;-64
2021/06/10 04:38:18;;;;;;;12.50;6.43;;;538.10;1715.20;;;;;;5073386;28;20016;-72
2021/06/10 04:40:44;;;;;;;11.70;5.65;;;538.10;1715.20;;;;;;5073376;28;20020;-65
2021/06/10 04:43:10;;;;;;;7.30;6.13;;;538.20;1715.20;;;;;;5073311;28;20020;-64
2021/06/10 04:45:36;;;;;;;9.35;6.25;;;538.30;1689.60;;;;;;5073572;28;20025;-72
2021/06/10 04:48:02;;;;;;;12.63;5.22;;;538.40;1689.60;;;;;;5073570;28;20044;-64
2021/06/10 04:50:28;;;;;;;8.27;5.93;;;538.50;1689.60;;;;;;5073197;28;20056;-73
2021/06/10 04:52:55;;;;;;;10.70;6.10;;;538.50;1689.60;;;;;;5073265;28;20024;-64
2021/06/10 04:55:22;;;;;;;13.02;6.07;;;563.20;1715.20;;;;;;5073386;28;20031;-64
2021/06/10 04:57:48;;;;;;;8.30;5.70;;;563.20;1689.60;;;;;;5072927;28;20067;-73
2021/06/10 05:00:14;;;;;;;9.43;6.07;;;563.20;1689.60;;;;;;5073196;28;20060;-73
2021/06/10 05:02:40;;;;;;;15.90;5.85;;;563.20;1715.20;;;;;;5073028;28;20481;-65
2021/06/10 05:05:07;;;;;;;12.13;5.63;;;563.20;1689.60;;;;;;5073283;28;20024;-64
2021/06/10 05:07:33;;;;;;;10.48;6.03;;;563.20;1689.60;;;;;;5072997;28;20021;-64
2021/06/10 05:10:00;;;;;;;12.55;5.65;;;563.20;1689.60;;;;;;5073038;28;20078;-71
2021/06/10 05:12:26;;;;;;;7.45;4.82;;;563.20;1689.60;;;;;;5073065;28;20054;-73
2021/06/10 05:14:52;;;;;;;8.68;4.80;;;563.20;1689.60;;;;;;5075704;28;20032;-64
2021/06/10 05:17:18;;;;;;;10.20;4.78;;;563.20;1689.60;;;;;;5076904;28;20109;-71
2021/06/10 05:19:44;;;;;;;11.10;5.25;;;563.20;1664.00;;;;;;5076824;28;20056;-64
2021/06/10 05:22:10;;;;;;;10.48;4.93;;;563.20;1664.00;;;;;;5077228;28;20032;-64
2021/06/10 05:24:36;;;;;;;11.93;5.30;;;563.30;1664.00;;;;;;5076781;28;20028;-72
2021/06/10 05:27:04;;;;;;;9.98;4.88;;;563.20;1664.00;;;;;;5076736;28;20044;-64
2021/06/10 05:29:30;;;;;;;12.25;5.20;;;563.40;1664.00;;;;;;5076670;28;20220;-64
2021/06/10 05:31:56;;;;;;;12.40;5.00;;;563.40;1664.00;;;;;;5076621;28;20579;-65
2021/06/10 05:34:22;;;;;;;10.75;5.60;;;563.50;1664.00;;;;;;5076591;28;20027;-64
2021/06/10 05:36:47;;;;;;;7.60;4.93;;;563.60;1664.00;;;;;;5075189;28;20042;-64
2021/06/10 05:39:13;;;;;;;7.28;5.13;;;563.60;1664.00;;;;;;5075244;28;20025;-73
2021/06/10 05:41:39;;;;;;;5.72;4.85;;;563.60;1638.40;;;;;;5076723;28;20029;-70
2021/06/10 05:44:05;;;;;;;9.77;4.60;;;563.70;1638.40;;;;;;5076433;28;20070;-64
2021/06/10 05:46:31;;;;;;;13.27;4.30;;;563.70;1638.40;;;;;;5076346;28;20020;-64
2021/06/10 05:48:57;;;;;;;9.55;4.53;;;563.80;1612.80;;;;;;5076341;28;20078;-64
2021/06/10 05:51:23;;;;;;;10.52;4.80;;;563.80;1612.80;;;;;;5076480;28;20016;-65
2021/06/10 05:53:49;;;;;;;9.25;4.90;;;563.80;1612.80;;;;;;5076600;28;20471;-64
2021/06/10 05:56:15;;;;;;;11.80;4.40;;;563.80;1587.20;;;;;;5076128;28;20547;-64
2021/06/10 05:58:41;;;;;;;6.88;4.15;;;563.80;1587.20;;;;;;5076063;28;20040;-65
2021/06/10 06:01:07;;;;;;;7.35;3.75;;;563.90;1561.60;;;;;;5076090;28;20477;-71
2021/06/10 06:03:33;;;;;;;5.35;4.25;;;563.90;1561.60;;;;;;5076011;28;20034;-64
2021/06/10 06:05:59;;;;;;;9.85;4.43;;;563.90;1561.60;;;;;;5076051;28;20055;-64
2021/06/10 06:08:25;;;;;;;7.47;4.68;;;563.90;1587.20;;;;;;5076493;28;20024;-73
2021/06/10 06:10:52;;;;;;;11.25;4.53;;;563.90;1587.20;;;;;;5074607;28;20085;-65
2021/06/10 06:13:22;;;;;;;11.18;4.43;;;563.90;1587.20;;;;;;5075953;28;20051;-73
2021/06/10 06:15:50;;;;;;;11.60;4.68;;;563.90;1587.20;;;;;;5076094;28;20434;-64
2021/06/10 06:18:19;;;;;;;8.35;4.80;;;563.90;1561.60;;;;;;5074562;28;20500;-73
2021/06/10 06:20:45;;;;;;;9.95;4.32;;;563.90;1561.60;;;;;;5075681;28;20024;-72
2021/06/10 06:23:10;;;;;;;7.90;4.95;;;563.90;1561.60;;;;;;5075658;28;20358;-72
2021/06/10 06:25:36;;;;;;;6.72;4.30;;;563.90;1561.60;;;;;;5075704;28;20035;-73
2021/06/10 06:28:02;;;;;;;8.98;4.20;;;564.00;1561.60;;;;;;5074308;28;20040;-64
2021/06/10 06:30:28;;;;;;;7.25;4.40;;;564.00;1536.00;;;;;;5075215;28;20110;-64
2021/06/10 06:32:54;;;;;;;8.63;4.32;;;564.10;1561.60;;;;;;5075407;28;20055;-64
2021/06/10 06:35:20;;;;;;;7.47;4.57;;;564.10;1561.60;;;;;;5075718;28;20033;-74
2021/06/10 06:37:48;;;;;;;14.80;4.68;;;564.10;1587.20;;;;;;5074983;28;20028;-65
2021/06/10 06:40:14;;;;;;;6.10;4.20;;;588.80;1561.60;;;;;;5074880;28;20369;-74
2021/06/10 06:42:39;;;;;;;5.78;4.35;;;588.90;1587.20;;;;;;5074770;28;20119;-67
2021/06/10 06:45:07;;;;;;;10.65;4.15;;;589.00;1561.60;;;;;;5074683;28;20485;-64
2021/06/10 06:47:33;;;;;;;15.98;4.20;;;589.10;1536.00;;;;;;5074791;28;20473;-64
2021/06/10 06:49:58;;;;;;;9.68;4.78;;;589.30;1510.40;;;;;;5074747;28;20091;-65
2021/06/10 06:52:24;;;;;;;13.85;4.93;;;589.30;1510.40;;;;;;5074640;28;20513;-66
2021/06/10 06:54:50;;;;;;;6.32;4.70;;;589.30;1510.40;;;;;;5074688;28;20078;-65
2021/06/10 06:57:17;;;;;;;9.55;4.28;;;589.30;1510.40;;;;;;5073621;28;20115;-65
2021/06/10 06:59:44;;;;;;;7.43;4.45;;;589.30;1510.40;;;;;;5072848;28;20045;-69
2021/06/10 07:02:10;;;;;;;7.00;4.25;;;589.40;1510.40;;;;;;5072961;28;20025;-65
2021/06/10 07:04:36;;;;;;;8.63;4.30;;;589.50;1510.40;;;;;;5073205;28;20025;-65
2021/06/10 07:07:02;;;;;;;8.30;4.57;;;589.50;1510.40;;;;;;5073293;28;20637;-65
2021/06/10 07:09:28;;;;;;;6.40;4.70;;;589.70;1484.80;;;;;;5073129;28;20025;-65
2021/06/10 07:11:54;;;;;;;8.18;4.20;;;614.40;1484.80;;;;;;5073237;28;20024;-64
2021/06/10 07:14:20;;;;;;;9.15;4.22;;;614.50;1484.80;;;;;;5074648;28;20035;-65
2021/06/10 07:16:45;;;;;;;7.18;4.20;;;614.50;1484.80;;;;;;5074914;28;20040;-64
2021/06/10 07:19:11;;;;;;;11.60;4.38;;;614.60;1484.80;;;;;;5074787;28;20043;-67
2021/06/10 07:21:45;;;;;;;7.65;4.25;;;614.60;1484.80;;;;;;5074848;28;20355;-66
2021/06/10 07:24:11;;;;;;;10.25;4.72;;;614.80;1484.80;;;;;;5074552;28;20025;-66
2021/06/10 07:26:37;;;;;;;11.23;4.43;;;614.90;1459.20;;;;;;5074433;28;20021;-64
2021/06/10 07:29:03;;;;;;;7.03;4.30;;;615.00;1459.20;;;;;;5073806;28;20020;-64
2021/06/10 07:31:29;;;;;;;10.55;4.20;;;615.00;1459.20;;;;;;5074256;28;20039;-65
2021/06/10 07:33:55;;;;;;;11.80;4.28;;;615.00;1459.20;;;;;;5074197;28;20400;-64
2021/06/10 07:36:22;;;;;;;10.05;4.75;;;614.90;1459.20;;;;;;5073371;28;20082;-64
2021/06/10 07:38:48;;;;;;;8.32;4.82;;;615.00;1459.20;;;;;;5074080;28;20013;-64
2021/06/10 07:41:14;;;;;;;6.35;3.92;;;615.00;1459.20;;;;;;5074047;28;20108;-68
2021/06/10 07:43:40;;;;;;;10.20;4.10;;;615.00;1459.20;;;;;;5073859;28;20029;-65
2021/06/10 07:46:05;;;;;;;8.60;4.60;;;615.00;1459.20;;;;;;5073849;28;20032;-66
2021/06/10 07:48:32;;;;;;;12.65;4.07;;;615.10;1459.20;;;;;;5073944;28;20024;-66
2021/06/10 07:50:57;;;;;;;9.88;4.22;;;615.10;1459.20;;;;;;5073772;28;20431;-63
2021/06/10 07:53:23;;;;;;;6.70;4.82;;;615.10;1459.20;;;;;;5073665;28;20016;-63
2021/06/10 07:55:55;;;;;;;11.45;4.22;;;615.30;1433.60;;;;;;5073647;28;20037;-67
2021/06/10 07:58:21;;;;;;;10.07;4.50;;;640.10;1408.00;;;;;;5073627;28;20390;-64
2021/06/10 08:00:47;;;;;;;6.45;3.58;;;640.10;1382.40;;;;;;5073731;28;20021;-69
2021/06/10 08:03:13;;;;;;;6.80;3.40;;;640.10;1356.80;;;;;;5072019;28;20021;-69
2021/06/10 08:05:39;;;;;;;9.63;3.67;;;640.10;1305.60;;;;;;5073590;28;20146;-64
2021/06/10 08:08:05;;;;;;;7.85;3.60;;;640.10;1305.60;;;;;;5073732;28;20500;-66
2021/06/10 08:10:31;;;;;;;5.53;3.40;;;640.10;1305.60;;;;;;5073671;28;20032;-62
2021/06/10 08:12:56;;;;;;;6.97;3.63;;;640.10;1305.60;;;;;;5073155;28;20487;-70
2021/06/10 08:15:22;;;;;;;9.13;3.75;;;640.10;1305.60;;;;;;5072710;28;20032;-65
2021/06/10 08:17:49;;;;;;;5.50;3.05;;;640.10;1305.60;;;;;;5072894;28;20020;-65
2021/06/10 08:20:17;;;;;;;8.48;3.28;;;640.20;1331.20;;;;;;5072311;28;20438;-65
2021/06/10 08:22:43;;;;;;;7.60;4.13;;;640.40;1356.80;;;;;;5073399;28;20024;-69
2021/06/10 08:25:09;;;;;;;7.03;4.00;;;640.50;1356.80;;;;;;5073212;28;20024;-63
2021/06/10 08:27:36;;;;;;;11.65;3.97;;;640.60;1382.40;;;;;;5072869;28;20508;-67
2021/06/10 08:30:05;;;;;;;10.75;4.30;;;640.60;1331.20;;;;;;5072690;28;20047;-61
2021/06/10 08:32:31;;;;;;;7.78;4.05;;;640.60;1305.60;;;;;;5072022;28;20029;-61
2021/06/10 08:34:57;;;;;;;13.90;4.25;;;640.60;1331.20;;;;;;5072009;28;20017;-63
2021/06/10 08:37:23;;;;;;;7.90;4.13;;;640.60;1305.60;;;;;;5071951;28;20055;-66
2021/06/10 08:39:48;;;;;;;6.72;4.20;;;640.60;1356.80;;;;;;5071422;28;20048;-65
2021/06/10 08:42:15;;;;;;;20.42;4.60;;;640.70;1331.20;;;;;;5071753;28;20027;-64
2021/06/10 08:44:43;;;;;;;5.05;3.58;;;640.70;1331.20;;;;;;5071482;28;20013;-65
2021/06/10 08:47:10;;;;;;;9.68;3.85;;;640.80;1305.60;;;;;;5071326;28;20474;-66
2021/06/10 08:49:37;;;;;;;14.43;4.53;;;640.80;1305.60;;;;;;5075983;28;20035;-66
2021/06/10 08:52:07;;;;;;;13.73;4.38;;;640.70;1331.20;;;;;;5073601;28;20370;-66
2021/06/10 08:54:33;;;;;;;8.65;4.47;;;640.70;1331.20;;;;;;5075531;28;20492;-65
2021/06/10 08:57:00;;;;;;;16.65;5.22;;;640.60;1305.60;;;;;;5073915;28;20040;-69
2021/06/10 08:59:26;;;;;;;7.53;4.13;;;640.60;1305.60;;;;;;5075207;28;20052;-69
2021/06/10 09:01:51;;;;;;;9.80;4.38;;;640.60;1305.60;;;;;;5075615;28;20025;-65
2021/06/10 09:04:17;;;;;;;8.77;3.58;;;640.60;1305.60;;;;;;5075986;28;20024;-65
2021/06/10 09:06:49;;;;;;;7.50;3.33;;;640.60;1305.60;;;;;;5075438;28;20056;-65
2021/06/10 09:09:20;;;;;;;7.60;3.90;;;640.60;1254.40;;;;;;5076491;28;20505;-67
2021/06/10 09:11:47;;;;;;;7.57;4.00;;;640.60;1254.40;;;;;;5075122;28;20039;-66
2021/06/10 09:14:13;;;;;;;11.45;3.67;;;640.60;1280.00;;;;;;5075177;28;20350;-64
2021/06/10 09:16:40;;;;;;;10.27;4.30;;;640.60;1305.60;;;;;;5075059;28;20039;-66
2021/06/10 09:19:12;;;;;;;5.55;4.03;;;640.60;1305.60;;;;;;5075545;28;20028;-68
2021/06/10 09:21:43;;;;;;;12.70;4.83;;;640.60;1331.20;;;;;;5075499;28;20028;-72
2021/06/10 09:24:25;;;;;;;19.73;5.07;;;640.50;1305.60;;;;;;5065193;28;20028;-65
2021/06/10 09:26:57;;;;;;;13.75;4.28;;;640.60;1331.20;;;;;;5071184;28;20052;-66
2021/06/10 09:29:41;;;;;;;8.05;4.05;;;640.50;1356.80;;;;;;5073040;28;20059;-66
2021/06/10 09:32:24;;;;;;;12.93;4.38;;;640.60;1356.80;;;;;;5073751;28;20012;-69
2021/06/10 09:34:57;;;;;;;7.82;4.63;;;640.60;1331.20;;;;;;5063692;28;20029;-67
2021/06/10 09:37:34;;;;;;;8.23;4.50;;;640.60;1331.20;;;;;;5074468;28;20028;-69
2021/06/10 09:40:13;;;;;;;9.35;3.72;;;640.70;1305.60;;;;;;5073550;28;20169;-72
2021/06/10 09:42:43;;;;;;;11.60;4.13;;;640.70;1331.20;;;;;;5071360;28;20679;-67
2021/06/10 09:45:17;;;;;;;9.43;5.40;;;640.80;1331.20;;;;;;5072479;28;20152;-65
2021/06/10 09:47:52;;;;;;;11.32;4.80;;;640.90;1254.40;;;;;;5073539;28;20029;-67
2021/06/10 09:50:24;;;;;;;11.57;3.80;;;640.90;1203.20;;;;;;5073530;28;20150;-70
2021/06/10 09:53:08;;;;;;;18.33;3.92;;;665.60;1203.20;;;;;;5071583;28;20108;-67
2021/06/10 09:55:45;;;;;;;7.25;3.95;;;665.60;1228.80;;;;;;5071267;28;20831;-67
2021/06/10 09:58:14;;;;;;;8.63;3.55;;;665.60;1228.80;;;;;;5073206;28;20040;-72
2021/06/10 10:00:46;;;;;;;7.72;3.83;;;665.60;1228.80;;;;;;5072236;28;20053;-70
2021/06/10 10:03:29;;;;;;;12.02;4.15;;;665.60;1203.20;;;;;;5071331;28;20097;-65
2021/06/10 10:06:05;;;;;;;10.48;4.32;;;665.60;1228.80;;;;;;5072540;28;20132;-65
2021/06/10 10:08:32;;;;;;;18.95;5.32;;;665.60;1254.40;;;;;;5074061;28;20016;-66
2021/06/10 10:11:02;;;;;;;7.80;3.78;;;665.60;1254.40;;;;;;5072390;28;20481;-62
2021/06/10 10:13:29;;;;;;;11.93;3.53;;;665.60;1280.00;;;;;;5073711;28;20048;-61
2021/06/10 10:16:03;;;;;;;15.85;6.20;;;640.90;1228.80;;;;;;5074108;28;20110;-60
2021/06/10 10:18:29;;;;;;;239.55;15.15;;;640.90;1254.40;;;;;;5072113;28;20048;-63
2021/06/10 10:21:00;;;;;;;9.82;4.00;;;640.90;1203.20;;;;;;5073561;28;20025;-61
2021/06/10 10:23:26;;;;;;;11.10;4.20;;;640.90;1228.80;;;;;;5071733;28;20024;-61
2021/06/10 10:25:57;;;;;;;9.43;3.92;;;640.90;1254.40;;;;;;5073286;28;20095;-62
2021/06/10 10:28:27;;;;;;;10.35;3.95;;;640.80;1228.80;;;;;;5069125;28;20028;-61
2021/06/10 10:30:53;;;;;;;8.18;4.00;;;640.70;1254.40;;;;;;5072805;28;20060;-60
2021/06/10 10:33:25;;;;;;;7.00;3.67;;;640.70;1254.40;;;;;;5072777;28;20493;-62
2021/06/10 10:35:53;;;;;;;8.40;3.58;;;640.70;1254.40;;;;;;5072992;28;20488;-70
2021/06/10 10:38:41;;;;;;;7.63;4.25;;;640.70;1280.00;;;;;;5071878;28;20028;-60
2021/06/10 10:41:21;;;;;;;8.05;3.60;;;640.70;1280.00;;;;;;5053096;28;20463;-61
2021/06/10 10:43:47;;;;;;;9.65;3.65;;;640.70;1280.00;;;;;;5052685;28;20036;-60
2021/06/10 10:46:19;;;;;;;12.35;3.72;;;640.60;1280.00;;;;;;5052946;28;20082;-60
2021/06/10 10:48:47;;;;;;;7.70;3.78;;;640.60;1280.00;;;;;;5052887;28;20028;-60
2021/06/10 10:51:22;;;;;;;15.48;4.38;;;640.60;1254.40;;;;;;5070427;28;20016;-59
2021/06/10 10:53:54;;;;;;;6.80;3.65;;;640.50;1280.00;;;;;;5072900;28;20107;-60
2021/06/10 10:56:32;;;;;;;15.38;4.07;;;640.50;1305.60;;;;;;5072753;28;20040;-60
2021/06/10 10:59:15;;;;;;;12.57;3.72;;;640.50;1331.20;;;;;;5073064;28;20043;-60
2021/06/10 11:01:41;;;;;;;15.27;4.83;;;640.40;1356.80;;;;;;5071439;28;20017;-61
2021/06/10 11:04:08;;;;;;;10.82;6.05;;;640.30;1356.80;;;;;;5072514;28;20013;-61
2021/06/10 11:06:35;;;;;;;6.38;4.50;;;640.30;1382.40;;;;;;5072328;28;20056;-62
2021/06/10 11:09:12;;;;;;;7.45;3.83;;;640.20;1356.80;;;;;;5071109;28;20048;-61
2021/06/10 11:11:58;;;;;;;9.10;3.63;;;640.20;1356.80;;;;;;5069783;28;20029;-63
2021/06/10 11:14:42;;;;;;;6.40;4.10;;;640.30;1356.80;;;;;;5072522;28;20024;-63
2021/06/10 11:17:12;;;;;;;7.70;3.60;;;640.30;1331.20;;;;;;5071023;28;20036;-66
2021/06/10 11:20:06;;;;;;;5.80;3.17;;;640.40;1331.20;;;;;;5070189;28;20023;-62
2021/06/10 11:22:44;;;;;;;6.05;3.40;;;640.40;1331.20;;;;;;5067102;28;20036;-62
2021/06/10 11:25:36;;;;;;;10.52;3.95;;;640.50;1356.80;;;;;;5068445;28;20039;-62
2021/06/10 11:28:14;;;;;;;6.25;3.55;;;640.50;1356.80;;;;;;5070035;28;20017;-63
2021/06/10 11:30:40;;;;;;;7.75;4.28;;;640.50;1382.40;;;;;;5067289;28;20139;-68
2021/06/10 11:33:15;;;;;;;12.02;4.28;;;640.50;1382.40;;;;;;5066621;28;20017;-61
2021/06/10 11:35:57;;;;;;;13.00;5.10;;;640.60;1382.40;;;;;;5068937;28;20043;-61
2021/06/10 11:38:30;;;;;;;12.68;4.50;;;640.60;1408.00;;;;;;5069802;28;20029;-62
2021/06/10 11:41:03;;;;;;;8.20;4.47;;;640.60;1408.00;;;;;;5069487;28;20020;-61
2021/06/10 11:43:30;;;;;;;11.98;4.65;;;640.70;1408.00;;;;;;5066613;28;20457;-61
2021/06/10 11:46:03;;;;;;;7.55;4.50;;;640.70;1382.40;;;;;;5070142;28;20032;-62
2021/06/10 11:48:34;;;;;;;15.13;6.55;;;640.70;1382.40;;;;;;5070261;28;20021;-63
2021/06/10 11:51:01;;;;;;;6.93;4.55;;;640.70;1331.20;;;;;;5072116;28;20024;-62
2021/06/10 11:53:30;;;;;;;9.88;5.85;;;640.80;1356.80;;;;;;5072450;28;20020;-62
2021/06/10 11:55:57;;;;;;;11.25;4.20;;;640.80;1356.80;;;;;;5072463;28;20489;-66
2021/06/10 11:58:29;;;;;;;7.70;4.85;;;640.80;1356.80;;;;;;5071771;28;20131;-61
2021/06/10 12:00:56;;;;;;;9.75;5.35;;;640.80;1356.80;;;;;;5071734;28;20029;-62
2021/06/10 12:03:22;;;;;;;13.00;4.55;;;640.80;1356.80;;;;;;5063095;28;20074;-71
2021/06/10 12:05:55;;;;;;;20.75;5.63;;;640.80;1382.40;;;;;;5070417;28;20492;-61
2021/06/10 12:08:22;;;;;;;12.43;4.28;;;640.90;1356.80;;;;;;5071100;28;20021;-68
2021/06/10 12:11:20;;;;;;;24.25;4.88;;;665.60;1382.40;;;;;;5070477;28;20032;-62
2021/06/10 12:13:51;;;;;;;15.80;3.97;;;665.60;1382.40;;;;;;5048082;28;20549;-63
2021/06/10 12:16:19;;;;;;;16.60;4.65;;;665.70;1382.40;;;;;;5047953;28;20048;-62
2021/06/10 12:18:46;;;;;;;7.45;4.50;;;665.70;1331.20;;;;;;5048203;28;20025;-63